Time;durP1;ratioP1;P1;durP2;ratioP2;P2;SDS_P1;SDS_P2;PMS_P1;PMS_P2;Temp;Humidity;BMP_temperature;BMP_pressure;BME280_temperature;BME280_humidity;BME280_pressure;Samples;Min_cycle;Max_cycle;Signal;HPM_P1;HPM_P2
2021/08/19 00:00:01;;;;;;;13.40;7.40;;;;;;;;;;5061950;28;20040;-65
2021/08/19 00:02:28;;;;;;;11.60;6.95;;;;;;;;;;5064129;28;20398;-65
2021/08/19 00:04:54;;;;;;;11.20;6.40;;;;;;;;;;5060777;28;20368;-65
2021/08/19 00:07:21;;;;;;;11.30;7.43;;;;;;;;;;5061252;28;20168;-65
2021/08/19 00:09:48;;;;;;;10.43;6.63;;;;;;;;;;5055559;28;20136;-65
2021/08/19 00:12:14;;;;;;;14.13;6.13;;;;;;;;;;5053483;28;20424;-65
2021/08/19 00:14:40;;;;;;;12.50;7.07;;;;;;;;;;5054459;28;20041;-65
2021/08/19 00:17:08;;;;;;;13.27;7.18;;;;;;;;;;5061343;28;20440;-65
2021/08/19 00:19:34;;;;;;;15.07;7.18;;;;;;;;;;5063944;28;20440;-65
2021/08/19 00:22:01;;;;;;;14.27;7.07;;;;;;;;;;5056466;28;20052;-65
2021/08/19 00:24:28;;;;;;;15.60;6.70;;;;;;;;;;5061140;28;20053;-65
2021/08/19 00:26:54;;;;;;;11.65;6.70;;;;;;;;;;5061845;28;20046;-65
2021/08/19 00:29:20;;;;;;;17.17;6.85;;;;;;;;;;5057122;28;20048;-65
2021/08/19 00:31:46;;;;;;;12.02;6.60;;;;;;;;;;5055977;28;20049;-65
2021/08/19 00:34:13;;;;;;;12.32;5.95;;;;;;;;;;5055064;28;20564;-65
2021/08/19 00:36:39;;;;;;;15.75;6.50;;;;;;;;;;5058796;28;20048;-65
2021/08/19 00:39:06;;;;;;;22.75;7.03;;;;;;;;;;5056281;28;20044;-65
2021/08/19 00:41:35;;;;;;;16.98;6.65;;;;;;;;;;5056334;28;20128;-65
2021/08/19 00:44:01;;;;;;;14.70;6.43;;;;;;;;;;5060535;28;20342;-65
2021/08/19 00:46:29;;;;;;;19.50;6.60;;;;;;;;;;5064166;28;20114;-65
2021/08/19 00:49:02;;;;;;;13.40;6.90;;;;;;;;;;5057822;28;20059;-65
2021/08/19 00:51:29;;;;;;;;;;;;;;;;;;5059505;28;20444;-65
2021/08/19 00:53:55;;;;;;;14.05;7.60;;;;;;;;;;5059082;28;19920;-65
2021/08/19 00:56:21;;;;;;;12.00;7.57;;;;;;;;;;5041985;28;20139;-65
2021/08/19 00:58:48;;;;;;;14.00;7.55;;;;;;;;;;5057124;28;20045;-65
2021/08/19 01:01:14;;;;;;;15.95;7.47;;;;;;;;;;5057000;28;20041;-65
2021/08/19 01:03:40;;;;;;;16.15;8.27;;;;;;;;;;5060351;28;20496;-65
2021/08/19 01:06:07;;;;;;;19.23;8.10;;;;;;;;;;5061755;28;20052;-65
2021/08/19 01:08:34;;;;;;;17.30;8.30;;;;;;;;;;5063081;28;20091;-65
2021/08/19 01:11:02;;;;;;;12.65;8.60;;;;;;;;;;5045411;28;20043;-65
2021/08/19 01:13:28;;;;;;;15.20;8.80;;;;;;;;;;5059934;28;20052;-65
2021/08/19 01:15:55;;;;;;;15.10;8.48;;;;;;;;;;5061005;28;20086;-65
2021/08/19 01:18:21;;;;;;;15.57;8.25;;;;;;;;;;5063768;28;20421;-65
2021/08/19 01:20:48;;;;;;;16.10;8.48;;;;;;;;;;5059118;28;20115;-65
2021/08/19 01:23:14;;;;;;;14.15;8.65;;;;;;;;;;5066105;28;20122;-65
2021/08/19 01:25:41;;;;;;;18.38;9.10;;;;;;;;;;5067081;28;20039;-65
2021/08/19 01:28:07;;;;;;;19.83;11.02;;;;;;;;;;5048611;28;20067;-65
2021/08/19 01:30:34;;;;;;;17.42;11.52;;;;;;;;;;5060398;28;20166;-65
2021/08/19 01:33:00;;;;;;;17.00;11.80;;;;;;;;;;5050207;28;20036;-65
2021/08/19 01:35:28;;;;;;;15.50;10.65;;;;;;;;;;5060315;28;20045;-66
2021/08/19 01:37:54;;;;;;;19.52;12.38;;;;;;;;;;5060495;28;20098;-65
2021/08/19 01:40:21;;;;;;;18.35;12.30;;;;;;;;;;5076297;28;20097;-65
2021/08/19 01:42:48;;;;;;;25.10;12.93;;;;;;;;;;5083260;28;20097;-65
2021/08/19 01:45:16;;;;;;;20.25;12.65;;;;;;;;;;5070790;28;20059;-65
2021/08/19 01:47:42;;;;;;;22.80;12.60;;;;;;;;;;5066820;28;20187;-65
2021/08/19 01:50:09;;;;;;;17.40;13.43;;;;;;;;;;5066084;28;20551;-65
2021/08/19 01:52:35;;;;;;;18.88;13.38;;;;;;;;;;5057804;28;20115;-65
2021/08/19 01:55:02;;;;;;;22.48;14.23;;;;;;;;;;5062880;28;20382;-65
2021/08/19 01:57:29;;;;;;;20.33;13.93;;;;;;;;;;5063900;28;20069;-65
2021/08/19 01:59:55;;;;;;;22.67;14.32;;;;;;;;;;5058299;28;20044;-65
2021/08/19 02:02:21;;;;;;;21.75;14.70;;;;;;;;;;5057327;28;21238;-65
2021/08/19 02:04:48;;;;;;;21.50;15.07;;;;;;;;;;5062422;28;20391;-65
2021/08/19 02:07:14;;;;;;;28.00;14.80;;;;;;;;;;5044929;28;20126;-65
2021/08/19 02:09:40;;;;;;;26.30;15.02;;;;;;;;;;5062045;28;20343;-65
2021/08/19 02:12:07;;;;;;;21.42;14.77;;;;;;;;;;5057871;28;20441;-65
2021/08/19 02:14:33;;;;;;;23.52;15.75;;;;;;;;;;5071884;28;20045;-65
2021/08/19 02:16:59;;;;;;;21.98;14.50;;;;;;;;;;5066136;28;20166;-65
2021/08/19 02:19:25;;;;;;;23.85;15.95;;;;;;;;;;5067194;28;20045;-65
2021/08/19 02:21:52;;;;;;;20.90;15.10;;;;;;;;;;5064528;28;20032;-65
2021/08/19 02:24:18;;;;;;;28.75;15.77;;;;;;;;;;5058385;28;20048;-65
2021/08/19 02:26:44;;;;;;;22.65;14.85;;;;;;;;;;5060311;28;20048;-65
2021/08/19 02:29:11;;;;;;;25.20;15.23;;;;;;;;;;5061075;28;20036;-65
2021/08/19 02:31:40;;;;;;;23.67;14.63;;;;;;;;;;5054011;28;20033;-65
2021/08/19 02:34:07;;;;;;;26.00;15.88;;;;;;;;;;5062201;28;20412;-65
2021/08/19 02:36:33;;;;;;;25.88;16.52;;;;;;;;;;5057840;28;20143;-65
2021/08/19 02:39:00;;;;;;;24.10;16.30;;;;;;;;;;5058792;28;20044;-65
2021/08/19 02:41:28;;;;;;;29.05;17.30;;;;;;;;;;5062681;28;21173;-65
2021/08/19 02:43:55;;;;;;;24.45;15.82;;;;;;;;;;5055594;28;20081;-65
2021/08/19 02:46:24;;;;;;;23.23;16.92;;;;;;;;;;5060296;28;20036;-65
2021/08/19 02:48:51;;;;;;;25.70;16.35;;;;;;;;;;5059621;28;20060;-65
2021/08/19 02:51:17;;;;;;;25.60;16.77;;;;;;;;;;5059732;28;20041;-66
2021/08/19 02:53:43;;;;;;;23.38;16.65;;;;;;;;;;5053585;28;20039;-65
2021/08/19 02:56:09;;;;;;;23.80;16.17;;;;;;;;;;5068206;28;20114;-65
2021/08/19 02:58:36;;;;;;;25.92;15.57;;;;;;;;;;5064329;28;20053;-65
2021/08/19 03:01:02;;;;;;;30.60;17.83;;;;;;;;;;5059765;28;20045;-65
2021/08/19 03:03:28;;;;;;;29.02;16.98;;;;;;;;;;5057794;28;20084;-65
2021/08/19 03:05:54;;;;;;;27.13;17.10;;;;;;;;;;5059512;28;20111;-65
2021/08/19 03:08:21;;;;;;;25.65;17.85;;;;;;;;;;5055601;28;20044;-65
2021/08/19 03:10:47;;;;;;;25.48;18.55;;;;;;;;;;5061046;28;20455;-65
2021/08/19 03:13:14;;;;;;;25.15;17.38;;;;;;;;;;5055276;28;20393;-65
2021/08/19 03:15:40;;;;;;;30.33;18.42;;;;;;;;;;5056724;28;20056;-65
2021/08/19 03:18:06;;;;;;;27.33;19.77;;;;;;;;;;5052227;28;20574;-65
2021/08/19 03:20:33;;;;;;;27.67;19.25;;;;;;;;;;5058155;28;20500;-65
2021/08/19 03:23:00;;;;;;;27.08;20.33;;;;;;;;;;5043819;28;20459;-65
2021/08/19 03:25:28;;;;;;;33.38;21.75;;;;;;;;;;5067729;28;20046;-65
2021/08/19 03:28:00;;;;;;;32.45;22.02;;;;;;;;;;5060943;28;20040;-65
2021/08/19 03:30:28;;;;;;;30.23;22.67;;;;;;;;;;5059858;28;20047;-65
2021/08/19 03:32:54;;;;;;;33.85;22.90;;;;;;;;;;5054228;28;20037;-65
2021/08/19 03:35:21;;;;;;;32.58;22.20;;;;;;;;;;5052577;28;20045;-65
2021/08/19 03:37:47;;;;;;;34.10;22.63;;;;;;;;;;5055343;28;20413;-65
2021/08/19 03:40:14;;;;;;;30.70;22.48;;;;;;;;;;5059868;28;20063;-65
2021/08/19 03:42:41;;;;;;;36.17;24.88;;;;;;;;;;5054598;28;20131;-65
2021/08/19 03:45:09;;;;;;;35.05;23.33;;;;;;;;;;5057960;28;20049;-65
2021/08/19 03:47:36;;;;;;;36.97;24.05;;;;;;;;;;5060929;28;20044;-65
2021/08/19 03:50:03;;;;;;;31.77;23.70;;;;;;;;;;5062288;28;20055;-65
2021/08/19 03:52:30;;;;;;;32.63;23.33;;;;;;;;;;5055894;28;20075;-65
2021/08/19 03:54:57;;;;;;;32.83;23.05;;;;;;;;;;5064937;28;20040;-65
2021/08/19 03:57:24;;;;;;;32.42;22.50;;;;;;;;;;5065895;28;20087;-65
2021/08/19 03:59:50;;;;;;;32.13;22.15;;;;;;;;;;5058984;28;20156;-65
2021/08/19 04:02:18;;;;;;;38.05;23.50;;;;;;;;;;5062627;28;20099;-65
2021/08/19 04:04:44;;;;;;;32.22;21.42;;;;;;;;;;5056222;28;20044;-65
2021/08/19 04:07:10;;;;;;;34.92;22.38;;;;;;;;;;5045905;28;20066;-65
2021/08/19 04:09:37;;;;;;;31.38;22.00;;;;;;;;;;5055764;28;20044;-65
2021/08/19 04:12:04;;;;;;;32.20;22.73;;;;;;;;;;5059279;28;20045;-65
2021/08/19 04:14:31;;;;;;;34.67;23.50;;;;;;;;;;5055736;28;20040;-65
2021/08/19 04:16:58;;;;;;;35.67;22.98;;;;;;;;;;5056299;28;20087;-65
2021/08/19 04:19:24;;;;;;;31.83;23.05;;;;;;;;;;5063313;28;20060;-65
2021/08/19 04:21:52;;;;;;;32.90;23.35;;;;;;;;;;5063553;28;20146;-65
2021/08/19 04:24:18;;;;;;;34.17;22.35;;;;;;;;;;5060003;28;20079;-65
2021/08/19 04:26:45;;;;;;;36.67;23.20;;;;;;;;;;5059832;28;20051;-65
2021/08/19 04:29:11;;;;;;;42.47;23.40;;;;;;;;;;5065301;28;20048;-65
2021/08/19 04:31:38;;;;;;;41.50;24.77;;;;;;;;;;5063368;28;20151;-65
2021/08/19 04:34:04;;;;;;;33.72;22.85;;;;;;;;;;5059573;28;20143;-65
2021/08/19 04:36:32;;;;;;;35.10;21.65;;;;;;;;;;5056154;28;20187;-65
2021/08/19 04:38:59;;;;;;;32.65;21.73;;;;;;;;;;5059643;28;20143;-66
2021/08/19 04:41:25;;;;;;;38.22;23.85;;;;;;;;;;5061467;28;20407;-65
2021/08/19 04:43:51;;;;;;;33.13;22.45;;;;;;;;;;5059022;28;20041;-65
2021/08/19 04:46:18;;;;;;;37.22;21.48;;;;;;;;;;5058991;28;20044;-65
2021/08/19 04:48:44;;;;;;;39.85;22.10;;;;;;;;;;5057914;28;20041;-65
2021/08/19 04:51:11;;;;;;;37.28;22.65;;;;;;;;;;5064409;28;20062;-65
2021/08/19 04:53:39;;;;;;;33.47;22.10;;;;;;;;;;5068397;28;20137;-65
2021/08/19 04:56:05;;;;;;;34.65;21.92;;;;;;;;;;5066363;28;20118;-65
2021/08/19 04:58:32;;;;;;;32.53;21.02;;;;;;;;;;5066342;28;20075;-66
2021/08/19 05:00:58;;;;;;;35.95;22.05;;;;;;;;;;5066961;28;20054;-66
2021/08/19 05:03:24;;;;;;;37.47;21.90;;;;;;;;;;5050582;28;20048;-67
2021/08/19 05:05:51;;;;;;;36.30;21.27;;;;;;;;;;5065779;28;20115;-66
2021/08/19 05:08:17;;;;;;;35.72;21.88;;;;;;;;;;5064734;28;20049;-66
2021/08/19 05:10:44;;;;;;;36.28;21.58;;;;;;;;;;5073751;28;20431;-66
2021/08/19 05:13:10;;;;;;;37.92;21.88;;;;;;;;;;5072352;28;20043;-66
2021/08/19 05:15:36;;;;;;;35.33;20.33;;;;;;;;;;5062551;28;20052;-67
2021/08/19 05:18:03;;;;;;;38.58;21.95;;;;;;;;;;5065677;28;20063;-67
2021/08/19 05:20:29;;;;;;;38.55;21.85;;;;;;;;;;5060068;28;20167;-67
2021/08/19 05:22:55;;;;;;;43.92;20.95;;;;;;;;;;5049749;28;20111;-67
2021/08/19 05:25:24;;;;;;;37.35;20.25;;;;;;;;;;5064942;28;20040;-67
2021/08/19 05:27:51;;;;;;;43.30;21.85;;;;;;;;;;5061587;28;20076;-66
2021/08/19 05:30:17;;;;;;;48.95;23.50;;;;;;;;;;5058586;28;20378;-67
2021/08/19 05:32:43;;;;;;;39.90;19.75;;;;;;;;;;5056467;28;20250;-67
2021/08/19 05:35:10;;;;;;;38.38;20.20;;;;;;;;;;5058968;28;20064;-67
2021/08/19 05:37:36;;;;;;;48.63;21.38;;;;;;;;;;5065428;28;20049;-67
2021/08/19 05:40:03;;;;;;;46.20;20.63;;;;;;;;;;5058844;28;20090;-66
2021/08/19 05:42:29;;;;;;;40.45;20.08;;;;;;;;;;5055057;28;20105;-66
2021/08/19 05:44:56;;;;;;;33.72;19.35;;;;;;;;;;5055094;28;20041;-65
2021/08/19 05:47:23;;;;;;;46.10;20.42;;;;;;;;;;5060829;28;20048;-65
2021/08/19 05:49:49;;;;;;;34.13;20.00;;;;;;;;;;5058206;28;20049;-65
2021/08/19 05:52:15;;;;;;;33.97;19.50;;;;;;;;;;5062214;28;20044;-66
2021/08/19 05:54:42;;;;;;;37.97;20.52;;;;;;;;;;5057255;28;20049;-66
2021/08/19 05:57:08;;;;;;;43.42;20.88;;;;;;;;;;5052263;28;20118;-67
2021/08/19 05:59:42;;;;;;;38.75;19.08;;;;;;;;;;5060210;28;20041;-66
2021/08/19 06:02:08;;;;;;;27.55;15.85;;;;;;;;;;5046794;28;20439;-67
2021/08/19 06:04:37;;;;;;;27.08;16.13;;;;;;;;;;5068126;28;20051;-66
2021/08/19 06:07:04;;;;;;;22.77;13.95;;;;;;;;;;5061251;28;20424;-66
2021/08/19 06:09:30;;;;;;;23.33;12.70;;;;;;;;;;5058083;28;20047;-66
2021/08/19 06:11:57;;;;;;;29.13;13.85;;;;;;;;;;5058601;28;20079;-66
2021/08/19 06:14:23;;;;;;;23.20;13.13;;;;;;;;;;5061872;28;20089;-66
2021/08/19 06:16:49;;;;;;;22.15;13.80;;;;;;;;;;5061870;28;20123;-67
2021/08/19 06:19:16;;;;;;;23.67;12.75;;;;;;;;;;5063869;28;20036;-67
2021/08/19 06:21:42;;;;;;;21.13;12.38;;;;;;;;;;5057709;28;20033;-68
2021/08/19 06:24:09;;;;;;;21.33;13.02;;;;;;;;;;5057797;28;20055;-68
2021/08/19 06:26:35;;;;;;;20.55;12.70;;;;;;;;;;5053447;28;20039;-67
2021/08/19 06:29:02;;;;;;;22.60;13.55;;;;;;;;;;5054240;28;20491;-67
2021/08/19 06:31:28;;;;;;;20.60;12.70;;;;;;;;;;5061265;28;20044;-68
2021/08/19 06:33:54;;;;;;;23.80;13.23;;;;;;;;;;5062416;28;20409;-67
2021/08/19 06:36:21;;;;;;;26.13;14.40;;;;;;;;;;5027037;28;1155594;-67
2021/08/19 06:38:52;;;;;;;20.45;13.73;;;;;;;;;;5058097;28;20159;-67
2021/08/19 06:41:19;;;;;;;26.67;14.30;;;;;;;;;;5051561;28;20080;-67
2021/08/19 06:43:45;;;;;;;25.00;13.77;;;;;;;;;;5063024;28;20151;-67
2021/08/19 06:46:11;;;;;;;28.02;15.65;;;;;;;;;;5067534;28;20080;-67
2021/08/19 06:48:38;;;;;;;30.52;16.02;;;;;;;;;;5067825;28;20040;-67
2021/08/19 06:51:05;;;;;;;30.67;15.52;;;;;;;;;;5067180;28;20132;-67
2021/08/19 06:53:31;;;;;;;26.10;14.85;;;;;;;;;;5055622;28;20037;-67
2021/08/19 06:55:57;;;;;;;27.75;15.18;;;;;;;;;;5056447;28;20127;-67
2021/08/19 06:58:23;;;;;;;29.13;16.05;;;;;;;;;;5069696;28;20427;-67
2021/08/19 07:00:50;;;;;;;28.73;16.02;;;;;;;;;;5079065;28;20068;-67
2021/08/19 07:03:17;;;;;;;29.73;15.15;;;;;;;;;;5077178;28;20051;-67
2021/08/19 07:05:44;;;;;;;21.25;12.95;;;;;;;;;;5079892;28;20478;-67
2021/08/19 07:08:30;;;;;;;22.05;12.75;;;;;;;;;;5061475;28;20041;-67
2021/08/19 07:10:56;;;;;;;23.75;13.80;;;;;;;;;;5065609;28;20118;-67
2021/08/19 07:13:22;;;;;;;21.67;12.48;;;;;;;;;;5068230;28;20452;-67
2021/08/19 07:15:49;;;;;;;17.58;12.10;;;;;;;;;;5067436;28;20033;-68
2021/08/19 07:18:15;;;;;;;21.48;12.30;;;;;;;;;;5061064;28;20033;-68
2021/08/19 07:20:41;;;;;;;24.33;11.60;;;;;;;;;;5064409;28;20098;-67
2021/08/19 07:23:08;;;;;;;19.70;10.80;;;;;;;;;;5055190;28;20037;-68
2021/08/19 07:25:34;;;;;;;20.17;12.63;;;;;;;;;;5079203;28;20041;-67
2021/08/19 07:28:01;;;;;;;19.30;11.05;;;;;;;;;;5079895;28;20044;-68
2021/08/19 07:30:27;;;;;;;15.15;10.75;;;;;;;;;;5077686;28;20054;-67
2021/08/19 07:32:54;;;;;;;17.75;11.23;;;;;;;;;;5058306;28;20116;-67
2021/08/19 07:35:20;;;;;;;17.90;12.05;;;;;;;;;;5065979;28;20040;-68
2021/08/19 07:37:49;;;;;;;18.02;11.10;;;;;;;;;;5079341;28;20059;-67
2021/08/19 07:40:16;;;;;;;20.73;12.40;;;;;;;;;;5055498;28;20040;-67
2021/08/19 07:42:43;;;;;;;20.17;12.02;;;;;;;;;;5072481;28;20057;-68
2021/08/19 07:45:10;;;;;;;18.63;11.20;;;;;;;;;;5068196;28;20044;-68
2021/08/19 07:47:36;;;;;;;15.63;10.52;;;;;;;;;;5062413;28;20135;-68
2021/08/19 07:50:04;;;;;;;18.25;11.05;;;;;;;;;;5061624;28;20055;-68
2021/08/19 07:52:30;;;;;;;17.55;11.07;;;;;;;;;;5059875;28;20123;-68
2021/08/19 07:54:57;;;;;;;14.35;10.20;;;;;;;;;;5059753;28;20110;-68
2021/08/19 07:57:23;;;;;;;11.85;8.38;;;;;;;;;;5069531;28;20043;-68
2021/08/19 07:59:49;;;;;;;14.50;9.48;;;;;;;;;;5077568;28;20040;-68
2021/08/19 08:02:16;;;;;;;14.35;8.90;;;;;;;;;;5080551;28;20376;-68
2021/08/19 08:04:42;;;;;;;19.10;9.60;;;;;;;;;;5074606;28;20369;-68
2021/08/19 08:07:08;;;;;;;11.82;8.38;;;;;;;;;;5072908;28;20054;-68
2021/08/19 08:09:35;;;;;;;13.20;8.85;;;;;;;;;;5071967;28;20070;-68
2021/08/19 08:12:01;;;;;;;14.35;8.35;;;;;;;;;;5065311;28;20115;-68
2021/08/19 08:14:27;;;;;;;13.45;8.35;;;;;;;;;;5058773;28;20041;-68
2021/08/19 08:16:53;;;;;;;10.98;7.93;;;;;;;;;;5058909;28;20055;-68
2021/08/19 08:19:20;;;;;;;11.55;7.60;;;;;;;;;;5057052;28;20049;-67
2021/08/19 08:21:46;;;;;;;13.98;8.52;;;;;;;;;;5052947;28;20103;-68
2021/08/19 08:24:13;;;;;;;16.08;9.00;;;;;;;;;;5063465;28;20063;-67
2021/08/19 08:26:39;;;;;;;12.05;9.05;;;;;;;;;;5073734;28;20043;-67
2021/08/19 08:29:05;;;;;;;12.85;9.32;;;;;;;;;;5074186;28;20076;-67
2021/08/19 08:31:33;;;;;;;13.15;9.07;;;;;;;;;;5061093;28;20059;-67
2021/08/19 08:33:59;;;;;;;13.10;9.63;;;;;;;;;;5068030;28;20037;-67
2021/08/19 08:36:26;;;;;;;11.48;8.60;;;;;;;;;;5068346;28;20447;-67
2021/08/19 08:38:52;;;;;;;15.90;8.73;;;;;;;;;;5068168;28;20041;-67
2021/08/19 08:41:19;;;;;;;13.43;8.30;;;;;;;;;;5057223;28;20070;-67
2021/08/19 08:43:48;;;;;;;11.13;7.72;;;;;;;;;;5066551;28;20056;-67
2021/08/19 08:46:15;;;;;;;10.30;7.15;;;;;;;;;;5064735;28;20045;-67
2021/08/19 08:48:43;;;;;;;12.20;8.35;;;;;;;;;;5063521;28;20181;-67
2021/08/19 08:51:10;;;;;;;10.32;8.00;;;;;;;;;;5061064;28;20052;-67
2021/08/19 08:53:37;;;;;;;10.52;7.18;;;;;;;;;;5058714;28;20040;-67
2021/08/19 08:56:03;;;;;;;9.40;6.97;;;;;;;;;;5065715;28;20048;-67
2021/08/19 08:58:29;;;;;;;9.48;6.70;;;;;;;;;;5067866;28;20052;-67
2021/08/19 09:00:56;;;;;;;12.43;8.18;;;;;;;;;;5069167;28;20152;-67
2021/08/19 09:03:22;;;;;;;14.40;7.82;;;;;;;;;;5067239;28;20456;-67
2021/08/19 09:05:50;;;;;;;12.05;8.68;;;;;;;;;;5068727;28;20045;-67
2021/08/19 09:08:17;;;;;;;15.13;9.80;;;;;;;;;;5066400;28;20104;-67
2021/08/19 09:10:44;;;;;;;14.43;9.05;;;;;;;;;;5067958;28;20135;-67
2021/08/19 09:13:14;;;;;;;15.90;10.90;;;;;;;;;;5068688;28;20054;-67
2021/08/19 09:15:41;;;;;;;19.15;9.50;;;;;;;;;;5067390;28;20126;-67
2021/08/19 09:18:07;;;;;;;12.57;8.73;;;;;;;;;;5064523;28;20093;-67
2021/08/19 09:20:33;;;;;;;9.70;7.20;;;;;;;;;;5068278;28;20110;-67
2021/08/19 09:23:06;;;;;;;11.65;6.43;;;;;;;;;;5067194;28;20110;-67
2021/08/19 09:25:35;;;;;;;10.10;7.25;;;;;;;;;;5052752;28;20072;-67
2021/08/19 09:28:08;;;;;;;11.52;8.40;;;;;;;;;;5068005;28;20064;-67
2021/08/19 09:30:35;;;;;;;11.30;8.00;;;;;;;;;;5070523;28;20040;-67
2021/08/19 09:33:03;;;;;;;9.05;6.90;;;;;;;;;;5071693;28;20047;-67
2021/08/19 09:35:30;;;;;;;14.48;8.73;;;;;;;;;;5070928;28;20048;-67
2021/08/19 09:37:57;;;;;;;13.00;8.88;;;;;;;;;;5064100;28;20060;-67
2021/08/19 09:40:23;;;;;;;10.23;7.63;;;;;;;;;;5066589;28;20140;-67
2021/08/19 09:42:50;;;;;;;10.43;7.50;;;;;;;;;;5070854;28;20055;-67
2021/08/19 09:45:18;;;;;;;10.00;7.03;;;;;;;;;;5053975;28;20126;-67
2021/08/19 09:47:45;;;;;;;12.85;8.70;;;;;;;;;;5070494;28;20048;-67
2021/08/19 09:50:12;;;;;;;12.82;8.27;;;;;;;;;;5062619;28;20044;-67
2021/08/19 09:52:39;;;;;;;12.00;7.75;;;;;;;;;;5064174;28;20089;-67
2021/08/19 09:55:25;;;;;;;12.50;8.30;;;;;;;;;;5060666;28;20053;-67
2021/08/19 09:57:51;;;;;;;12.00;9.75;;;;;;;;;;5067838;28;20063;-68
2021/08/19 10:00:28;;;;;;;15.32;9.30;;;;;;;;;;5071578;28;20468;-67
2021/08/19 10:02:55;;;;;;;12.77;8.00;;;;;;;;;;5071155;28;20098;-67
2021/08/19 10:05:21;;;;;;;9.70;7.00;;;;;;;;;;5069658;28;20044;-67
2021/08/19 10:07:48;;;;;;;11.35;7.15;;;;;;;;;;5067065;28;20477;-67
2021/08/19 10:10:14;;;;;;;8.18;6.28;;;;;;;;;;5066713;28;20473;-67
2021/08/19 10:12:42;;;;;;;11.18;6.65;;;;;;;;;;5070614;28;20041;-67
2021/08/19 10:15:10;;;;;;;9.35;5.85;;;;;;;;;;5068963;28;20033;-67
2021/08/19 10:17:38;;;;;;;9.43;6.53;;;;;;;;;;5071055;28;20098;-67
2021/08/19 10:20:09;;;;;;;12.95;6.40;;;;;;;;;;5064306;28;20052;-67
2021/08/19 10:22:36;;;;;;;13.55;7.03;;;;;;;;;;5071337;28;20068;-67
2021/08/19 10:25:05;;;;;;;11.88;6.97;;;;;;;;;;5070594;28;20040;-67
2021/08/19 10:27:32;;;;;;;10.90;7.60;;;;;;;;;;5070341;28;20048;-67
2021/08/19 10:30:02;;;;;;;12.38;8.02;;;;;;;;;;5066628;28;20508;-67
2021/08/19 10:32:33;;;;;;;12.95;7.32;;;;;;;;;;5066618;28;20084;-67
2021/08/19 10:35:03;;;;;;;10.77;6.55;;;;;;;;;;5063213;28;20056;-67
2021/08/19 10:37:50;;;;;;;10.30;6.43;;;;;;;;;;5069281;28;20067;-67
2021/08/19 10:40:20;;;;;;;13.38;6.82;;;;;;;;;;5052389;28;20032;-67
2021/08/19 10:42:47;;;;;;;10.35;6.28;;;;;;;;;;5070679;28;20147;-67
2021/08/19 10:45:23;;;;;;;8.38;5.68;;;;;;;;;;5071144;28;20044;-67
2021/08/19 10:47:50;;;;;;;9.48;6.40;;;;;;;;;;5050634;28;20044;-67
2021/08/19 10:50:25;;;;;;;10.25;6.18;;;;;;;;;;5054895;28;20100;-67
2021/08/19 10:52:53;;;;;;;10.13;6.70;;;;;;;;;;5067688;28;20041;-67
2021/08/19 10:55:19;;;;;;;12.55;7.60;;;;;;;;;;5052073;28;20036;-67
2021/08/19 10:57:48;;;;;;;15.55;7.53;;;;;;;;;;5066350;28;20045;-67
2021/08/19 11:00:14;;;;;;;13.77;7.97;;;;;;;;;;5070094;28;20044;-67
2021/08/19 11:02:40;;;;;;;13.23;7.78;;;;;;;;;;5071067;28;20044;-67
2021/08/19 11:05:07;;;;;;;11.00;7.00;;;;;;;;;;5070132;28;20037;-68
2021/08/19 11:07:47;;;;;;;12.00;7.07;;;;;;;;;;5070256;28;20048;-67
2021/08/19 11:10:20;;;;;;;15.95;8.70;;;;;;;;;;5067680;28;20044;-67
2021/08/19 11:12:48;;;;;;;12.48;7.90;;;;;;;;;;5061413;28;20396;-67
2021/08/19 11:15:15;;;;;;;12.18;6.90;;;;;;;;;;5068990;28;20040;-68
2021/08/19 11:17:51;;;;;;;17.17;8.40;;;;;;;;;;5062453;28;20040;-68
2021/08/19 11:20:23;;;;;;;11.48;7.95;;;;;;;;;;5070181;28;20045;-67
2021/08/19 11:22:59;;;;;;;13.68;8.32;;;;;;;;;;5069364;28;20488;-68
2021/08/19 11:25:26;;;;;;;16.92;8.73;;;;;;;;;;5069642;28;20079;-67
2021/08/19 11:27:54;;;;;;;14.32;8.45;;;;;;;;;;5063324;28;20074;-67
2021/08/19 11:30:32;;;;;;;13.25;8.20;;;;;;;;;;5060827;28;20060;-67
2021/08/19 11:33:10;;;;;;;13.73;7.35;;;;;;;;;;5048913;28;20041;-68
2021/08/19 11:35:37;;;;;;;16.67;8.13;;;;;;;;;;5064247;28;20078;-67
2021/08/19 11:38:14;;;;;;;17.00;8.13;;;;;;;;;;5058330;28;20068;-68
2021/08/19 11:40:41;;;;;;;14.07;7.93;;;;;;;;;;5060213;28;20095;-67
2021/08/19 11:43:27;;;;;;;13.05;7.68;;;;;;;;;;5059182;28;20046;-68
2021/08/19 11:45:55;;;;;;;14.73;8.00;;;;;;;;;;5066746;28;20044;-68
2021/08/19 11:48:23;;;;;;;11.95;7.32;;;;;;;;;;5047994;28;20390;-68
2021/08/19 11:50:53;;;;;;;13.68;7.55;;;;;;;;;;5069187;28;20037;-68
2021/08/19 11:53:21;;;;;;;14.00;7.97;;;;;;;;;;5069422;28;20135;-67
2021/08/19 11:55:47;;;;;;;17.55;8.23;;;;;;;;;;5064453;28;20476;-68
2021/08/19 11:58:22;;;;;;;17.23;8.90;;;;;;;;;;5065329;28;20477;-68
2021/08/19 12:00:57;;;;;;;18.38;7.90;;;;;;;;;;5068939;28;20071;-68
2021/08/19 12:03:23;;;;;;;15.93;8.05;;;;;;;;;;5067360;28;20127;-68
2021/08/19 12:06:00;;;;;;;16.77;8.45;;;;;;;;;;5068489;28;20086;-68
2021/08/19 12:08:27;;;;;;;13.48;8.43;;;;;;;;;;5066304;28;20362;-66
2021/08/19 12:10:54;;;;;;;17.17;8.68;;;;;;;;;;5060508;28;20091;-67
2021/08/19 12:13:21;;;;;;;15.43;8.35;;;;;;;;;;5063982;28;20452;-69
2021/08/19 12:15:47;;;;;;;17.27;9.50;;;;;;;;;;5069063;28;20064;-70
2021/08/19 12:18:13;;;;;;;16.95;9.32;;;;;;;;;;5058834;28;20081;-70
2021/08/19 12:20:40;;;;;;;16.05;9.13;;;;;;;;;;5068224;28;20040;-70
2021/08/19 12:23:21;;;;;;;18.77;10.35;;;;;;;;;;5068945;28;20080;-70
2021/08/19 12:25:47;;;;;;;14.25;9.20;;;;;;;;;;5065110;28;20054;-70
2021/08/19 12:28:16;;;;;;;13.35;6.82;;;;;;;;;;5050329;28;20028;-70
2021/08/19 12:30:56;;;;;;;13.15;7.45;;;;;;;;;;5063216;28;20044;-82
2021/08/19 12:33:34;;;;;;;19.17;7.65;;;;;;;;;;5064607;28;20132;-68
2021/08/19 12:36:09;;;;;;;11.65;7.43;;;;;;;;;;5055840;28;20449;-68
2021/08/19 12:38:35;;;;;;;14.02;7.90;;;;;;;;;;5049796;28;20128;-68
2021/08/19 12:41:16;;;;;;;14.85;7.75;;;;;;;;;;5067142;28;20036;-68
2021/08/19 12:43:43;;;;;;;12.57;7.43;;;;;;;;;;5065125;28;20226;-68
2021/08/19 12:46:10;;;;;;;19.17;9.23;;;;;;;;;;5067829;28;20157;-68
2021/08/19 12:48:37;;;;;;;15.45;8.45;;;;;;;;;;5062313;28;20162;-68
2021/08/19 12:51:17;;;;;;;18.42;8.55;;;;;;;;;;5065133;28;20045;-68
2021/08/19 12:54:03;;;;;;;15.35;8.27;;;;;;;;;;5056706;28;20139;-68
2021/08/19 12:56:30;;;;;;;15.18;8.07;;;;;;;;;;5067732;28;20053;-68
2021/08/19 12:58:56;;;;;;;15.85;7.57;;;;;;;;;;5068536;28;20041;-68
2021/08/19 13:01:22;;;;;;;14.73;8.45;;;;;;;;;;5068937;28;20056;-69
2021/08/19 13:03:49;;;;;;;23.40;7.65;;;;;;;;;;5071991;28;20083;-68
2021/08/19 13:06:15;;;;;;;15.48;8.32;;;;;;;;;;5070503;28;20520;-68
2021/08/19 13:08:41;;;;;;;17.40;8.48;;;;;;;;;;5070826;28;20132;-68
2021/08/19 13:11:07;;;;;;;15.10;7.72;;;;;;;;;;5071013;28;20563;-68
2021/08/19 13:13:34;;;;;;;14.82;8.43;;;;;;;;;;5068976;28;20131;-68
2021/08/19 13:16:01;;;;;;;13.18;7.97;;;;;;;;;;5061910;28;20112;-68
2021/08/19 13:18:27;;;;;;;13.18;7.15;;;;;;;;;;5060225;28;20076;-69
2021/08/19 13:20:53;;;;;;;15.68;7.57;;;;;;;;;;5072320;28;20076;-75
2021/08/19 13:23:20;;;;;;;14.07;8.18;;;;;;;;;;5067367;28;20348;-75
2021/08/19 13:25:46;;;;;;;14.43;8.60;;;;;;;;;;5066123;28;20043;-75
2021/08/19 13:28:12;;;;;;;15.77;8.57;;;;;;;;;;5052006;28;20090;-75
2021/08/19 13:30:39;;;;;;;17.60;9.35;;;;;;;;;;5070930;28;20154;-75
2021/08/19 13:33:05;;;;;;;17.42;9.88;;;;;;;;;;5062812;28;20040;-75
2021/08/19 13:35:31;;;;;;;16.02;9.13;;;;;;;;;;5071124;28;20048;-75
2021/08/19 13:37:58;;;;;;;17.65;9.35;;;;;;;;;;5070930;28;20033;-74
2021/08/19 13:40:25;;;;;;;14.32;8.75;;;;;;;;;;5059785;28;20041;-75
2021/08/19 13:42:51;;;;;;;11.93;7.68;;;;;;;;;;5059448;28;20033;-75
2021/08/19 13:45:18;;;;;;;13.07;8.60;;;;;;;;;;5064427;28;20035;-75
2021/08/19 13:47:44;;;;;;;14.73;8.10;;;;;;;;;;5063449;28;20104;-75
2021/08/19 13:50:10;;;;;;;13.15;8.55;;;;;;;;;;5070381;28;20079;-75
2021/08/19 13:52:37;;;;;;;16.67;7.78;;;;;;;;;;5059064;28;20048;-75
2021/08/19 13:55:04;;;;;;;15.40;8.30;;;;;;;;;;5069293;28;20032;-75
2021/08/19 13:57:31;;;;;;;11.52;7.63;;;;;;;;;;5060954;28;20048;-75
2021/08/19 13:59:57;;;;;;;16.05;8.40;;;;;;;;;;5071785;28;20381;-75
2021/08/19 14:02:24;;;;;;;17.20;6.70;;;;;;;;;;5071158;28;20408;-75
2021/08/19 14:04:50;;;;;;;17.98;6.78;;;;;;;;;;5070417;28;20041;-75
2021/08/19 14:07:16;;;;;;;10.93;5.72;;;;;;;;;;5066448;28;20401;-75
2021/08/19 14:09:42;;;;;;;14.32;6.45;;;;;;;;;;5071378;28;20051;-75
2021/08/19 14:12:09;;;;;;;12.23;5.95;;;;;;;;;;5069808;28;20055;-75
2021/08/19 14:14:35;;;;;;;12.98;5.82;;;;;;;;;;5071024;28;20144;-75
2021/08/19 14:17:01;;;;;;;11.80;5.85;;;;;;;;;;5071118;28;20126;-75
2021/08/19 14:19:28;;;;;;;12.73;6.72;;;;;;;;;;5070631;28;20092;-75
2021/08/19 14:21:54;;;;;;;14.07;7.22;;;;;;;;;;5051898;28;20480;-75
2021/08/19 14:24:22;;;;;;;10.65;6.53;;;;;;;;;;5070857;28;20070;-75